• Join FlightAware (Why Join?)
  • Login
  • US Flag 
04:21PM EDT


 

Airport Tracker/Info


-or-


 

Live Flight TrackerFlight Track Log ✈ N884FT ✈ 28-Feb-2014 ✈ KSGJ - KMLB

Flight Track Log - Related Links

Times and Time Zones

All times are in EST time to prevent confusion due to time zone crossing. See the N884FT flight status page for this flight to view local times or setup timezone preferences in your user account.

Time Position Orientation Groundspeed Altitude Reporting Facility
EST Latitude Longitude Course Direction KTS MPH feet Rate Location/Type
09:14PM 29.7836 -81.3706 163° South 149 171 6,000  Level Jacksonville Center
09:15PM 29.6998 -81.2411 162° South  Level Estimated
09:15PM 29.7436 -81.3522 158° South 161 185 6,100  Level Jacksonville Center
09:16PM 29.6624 -81.2278 163° South  Level FlightAware Approximate
09:16PM 29.6975 -81.3242 152° Southeast 166 191 6,000  Level Jacksonville Center
09:17PM 29.6251 -81.2146 163° South  Level FlightAware Approximate
09:17PM 29.6553 -81.3033 157° South 163 188 6,000  Level Jacksonville Center
09:18PM 29.5878 -81.2014 163° South  Level FlightAware Approximate
09:18PM 29.6153 -81.2800 153° Southeast 163 188 6,100  Level Jacksonville Center
09:19PM 29.5505 -81.1882 163° South  Level FlightAware Approximate
09:19PM 29.5733 -81.2592 157° South 163 188 6,000  Level Jacksonville Center
09:20PM 29.5250 -81.2314 153° Southeast 163 188 6,100  Climbing Jacksonville Center
09:21PM 29.4894 -81.2153 158° South 164 189 6,000 -60 Descending Jacksonville Center
09:22PM 29.4472 -81.1922 155° Southeast 164 189 6,000  Level Jacksonville Center
09:23PM 29.4072 -81.1667 151° Southeast 164 189 6,000  Level Jacksonville Center
09:24PM 29.3631 -81.1483 160° South 165 190 6,100  Climbing Jacksonville Center
09:25PM 29.3211 -81.1253 154° Southeast 166 191 6,000 -60 Descending Jacksonville Center
09:26PM 29.2792 -81.1047 157° South 161 185 6,000  Level Jacksonville Center
09:27PM 29.2328 -81.0864 161° South 166 191 6,000  Level Jacksonville Center
09:29PM 29.1500 -81.0500 159° South 168 193 6,000  Level Orlando TRACON
09:30PM 29.1167 -81.0333 156° South 167 192 6,000  Level Orlando TRACON
09:31PM 29.0667 -81.0167 164° South 165 190 6,000  Level Orlando TRACON
09:32PM 29.0167 -81.0000 164° South 166 191 6,000  Level Orlando TRACON
09:33PM 28.9667 -80.9833 164° South 164 189 6,100  Climbing Orlando TRACON
09:34PM 28.9167 -80.9500 150° Southeast 166 191 6,000 -60 Descending Orlando TRACON
09:35PM 28.8667 -80.9333 164° South 165 190 6,000  Level Orlando TRACON
09:36PM 28.8333 -80.9167 156° South 166 191 6,000 -180 Level Orlando TRACON
09:37PM 28.7833 -80.9000 164° South 173 199 5,700 -420 Descending Orlando TRACON
09:38PM 28.7500 -80.8833 156° South 175 201 5,300 -480 Descending Orlando TRACON
09:39PM 28.7000 -80.8833 180° South 167 192 4,900 -540 Descending Orlando TRACON
09:40PM 28.6667 -80.8833 180° South 168 193 4,300 -420 Descending Orlando TRACON
09:41PM 28.6000 -80.8833 180° South 167 192 4,100 -180 Descending Orlando TRACON
09:42PM 28.5667 -80.8833 180° South 159 183 4,000 -60 Descending Orlando TRACON
09:43PM 28.5167 -80.8833 180° South 159 183 4,000  Level Orlando TRACON
09:44PM 28.4833 -80.8833 180° South 153 176 4,100  Climbing Orlando TRACON
09:45PM 28.4333 -80.8833 180° South 150 173 4,000 -240 Descending Orlando TRACON
09:46PM 28.4000 -80.8833 180° South 159 183 3,700 -420 Descending Orlando TRACON
09:47PM 28.3500 -80.8667 164° South 167 192 3,200 -540 Descending Orlando TRACON
09:48PM 28.3000 -80.8667 180° South 166 191 2,700 -480 Descending Orlando TRACON
09:49PM 28.2667 -80.8667 180° South 168 193 2,300 -300 Descending Orlando TRACON
09:50PM 28.2167 -80.8667 180° South 169 194 2,100 -180 Descending Orlando TRACON
09:51PM 28.1667 -80.8667 180° South 160 184 2,000 -60 Descending Orlando TRACON
09:52PM 28.1167 -80.8667 180° South 159 183 2,000  Level Orlando TRACON
09:53PM 28.0833 -80.8500 156° South 133 153 2,000  Level Orlando TRACON
09:54PM 28.0833 -80.8167 90° East 95 109 2,000 -180 Level Orlando TRACON
09:55PM 28.0833 -80.7833 90° East 116 133 1,700 -240 Descending Orlando TRACON
09:56PM 28.1000 -80.7500 60° Northeast 103 119 1,600 -420 Descending Orlando TRACON
09:57PM 28.1000 -80.7167 90° East 91 105 1,000 -540 Descending Orlando TRACON
09:58PM 28.1000 -80.7000 90° East 93 107 600 -480 Descending Orlando TRACON
10:00PM 28.1028 -80.6453 84° East  Level Estimated
10:07PM 28.1028 -80.6453 84° East  Level Estimated
10:08PM 28.1028 -80.6453 84° East  Level Estimated
10:09PM 28.1028 -80.6453 84° East  Level Estimated
10:10PM 28.1028 -80.6453 84° East  Level Estimated